Time;durP1;ratioP1;P1;durP2;ratioP2;P2;SDS_P1;SDS_P2;PMS_P1;PMS_P2;Temp;Humidity;BMP_temperature;BMP_pressure;BME280_temperature;BME280_humidity;BME280_pressure;Samples;Min_cycle;Max_cycle;Signal;HPM_P1;HPM_P2
2022/03/12 00:00:13;;;;;;;;;5.75;5.75;;;;;;;;5070840;28;50927;-63
2022/03/12 00:02:39;;;;;;;;;4.50;4.00;;;;;;;;5057642;27;51497;-63
2022/03/12 00:05:07;;;;;;;;;4.25;4.25;;;;;;;;5066387;27;54079;-63
2022/03/12 00:07:32;;;;;;;;;16.00;15.50;;;;;;;;5065934;27;52122;-63
2022/03/12 00:09:58;;;;;;;;;8.00;7.25;;;;;;;;5072400;28;51064;-63
2022/03/12 00:12:24;;;;;;;;;5.00;5.00;;;;;;;;5071870;27;51571;-64
2022/03/12 00:14:49;;;;;;;;;3.00;3.00;;;;;;;;5071544;28;51342;-64
2022/03/12 00:17:16;;;;;;;;;5.00;5.00;;;;;;;;5072181;27;52153;-63
2022/03/12 00:19:41;;;;;;;;;7.75;4.75;;;;;;;;5070526;28;50983;-64
2022/03/12 00:22:08;;;;;;;;;3.00;3.00;;;;;;;;5065975;27;51117;-63
2022/03/12 00:24:34;;;;;;;;;6.25;4.25;;;;;;;;5070537;28;51036;-62
2022/03/12 00:27:00;;;;;;;;;5.50;5.00;;;;;;;;5070660;27;52692;-62
2022/03/12 00:29:26;;;;;;;;;3.75;3.00;;;;;;;;5072507;28;50915;-63
2022/03/12 00:31:54;;;;;;;;;4.00;4.00;;;;;;;;5070535;27;51120;-64
2022/03/12 00:34:19;;;;;;;;;5.00;5.00;;;;;;;;5071166;28;51325;-63
2022/03/12 00:36:44;;;;;;;;;4.00;4.00;;;;;;;;5073025;27;52803;-62
2022/03/12 00:39:10;;;;;;;;;5.00;5.00;;;;;;;;5068004;28;51025;-63
2022/03/12 00:41:38;;;;;;;;;4.50;4.50;;;;;;;;5067388;27;51226;-63
2022/03/12 00:44:03;;;;;;;;;4.00;3.75;;;;;;;;5072887;28;51020;-64
2022/03/12 00:46:29;;;;;;;;;3.75;3.75;;;;;;;;5068459;27;51962;-63
2022/03/12 00:48:54;;;;;;;;;4.50;4.00;;;;;;;;5083687;27;50928;-64
2022/03/12 00:51:19;;;;;;;;;3.00;3.00;;;;;;;;5070949;27;51282;-63
2022/03/12 00:53:44;;;;;;;;;7.00;5.00;;;;;;;;5071968;28;51240;-63
2022/03/12 00:56:10;;;;;;;;;3.00;3.00;;;;;;;;5071608;28;51953;-62
2022/03/12 00:58:35;;;;;;;;;3.00;2.25;;;;;;;;5070822;27;50932;-62
2022/03/12 01:01:01;;;;;;;;;3.00;3.00;;;;;;;;5071366;28;51620;-63
2022/03/12 01:03:26;;;;;;;;;4.00;3.00;;;;;;;;5071238;28;52235;-63
2022/03/12 01:05:59;;;;;;;;;4.75;4.00;;;;;;;;5071864;28;51799;-64
2022/03/12 01:08:26;;;;;;;;;8.50;7.25;;;;;;;;5066695;28;51276;-64
2022/03/12 01:10:51;;;;;;;;;4.25;4.25;;;;;;;;5069651;28;50986;-62
2022/03/12 01:13:17;;;;;;;;;4.00;4.00;;;;;;;;5057394;28;51177;-64
2022/03/12 01:15:43;;;;;;;;;2.75;2.75;;;;;;;;5071506;28;52124;-63
2022/03/12 01:18:19;;;;;;;;;3.00;3.00;;;;;;;;5071984;28;51068;-63
2022/03/12 01:20:44;;;;;;;;;5.00;4.50;;;;;;;;5070900;27;51158;-64
2022/03/12 01:23:10;;;;;;;;;5.00;3.00;;;;;;;;5068036;27;51124;-62
2022/03/12 01:25:36;;;;;;;;;3.75;3.75;;;;;;;;5069452;27;52038;-62
2022/03/12 01:28:01;;;;;;;;;4.00;4.00;;;;;;;;5071666;28;51035;-62
2022/03/12 01:30:28;;;;;;;;;4.00;4.00;;;;;;;;5068799;28;51134;-63
2022/03/12 01:32:53;;;;;;;;;2.50;2.50;;;;;;;;5073797;28;51167;-64
2022/03/12 01:35:19;;;;;;;;;4.75;4.00;;;;;;;;5074888;28;51264;-64
2022/03/12 01:37:44;;;;;;;;;6.25;3.75;;;;;;;;5075790;27;51265;-63
2022/03/12 01:40:11;;;;;;;;;4.25;4.00;;;;;;;;5072183;28;51095;-62
2022/03/12 01:42:37;;;;;;;;;4.75;3.00;;;;;;;;5073110;28;51063;-62
2022/03/12 01:45:03;;;;;;;;;32.25;30.00;;;;;;;;5074549;28;52039;-62
2022/03/12 01:47:29;;;;;;;;;5.00;5.00;;;;;;;;5064505;28;51251;-63
2022/03/12 01:49:55;;;;;;;;;5.50;4.00;;;;;;;;5070499;28;51076;-63
2022/03/12 01:52:21;;;;;;;;;8.00;4.50;;;;;;;;5075081;28;51152;-63
2022/03/12 01:54:46;;;;;;;;;4.00;3.00;;;;;;;;5072528;28;51447;-62
2022/03/12 01:57:12;;;;;;;;;2.00;2.00;;;;;;;;5074926;27;51128;-62
2022/03/12 01:59:37;;;;;;;;;4.00;3.25;;;;;;;;5073370;27;51158;-62
2022/03/12 02:02:04;;;;;;;;;2.33;2.00;;;;;;;;5072268;28;51810;-62
2022/03/12 02:04:29;;;;;;;;;3.00;3.00;;;;;;;;5074515;28;51745;-65
2022/03/12 02:06:58;;;;;;;;;4.00;4.00;;;;;;;;5073377;27;51030;-62
2022/03/12 02:09:24;;;;;;;;;3.50;2.00;;;;;;;;5074896;28;51482;-62
2022/03/12 02:11:52;;;;;;;;;4.00;3.25;;;;;;;;5073080;28;51406;-63
2022/03/12 02:14:20;;;;;;;;;3.25;3.00;;;;;;;;5070417;27;51882;-62
2022/03/12 02:16:48;;;;;;;;;4.00;3.00;;;;;;;;5068044;28;50958;-62
2022/03/12 02:19:13;;;;;;;;;3.00;2.75;;;;;;;;5073062;28;51267;-62
2022/03/12 02:21:43;;;;;;;;;7.00;4.75;;;;;;;;5074152;28;51221;-62
2022/03/12 02:24:12;;;;;;;;;4.00;4.00;;;;;;;;5074214;27;50960;-63
2022/03/12 02:26:41;;;;;;;;;6.00;5.00;;;;;;;;5073634;28;51088;-63
2022/03/12 02:29:09;;;;;;;;;3.25;3.25;;;;;;;;5065220;27;50988;-63
2022/03/12 02:31:35;;;;;;;;;4.25;3.50;;;;;;;;5073047;28;51107;-63
2022/03/12 02:34:01;;;;;;;;;3.50;2.75;;;;;;;;5073553;27;51138;-63
2022/03/12 02:36:27;;;;;;;;;4.50;4.50;;;;;;;;5076936;27;51146;-63
2022/03/12 02:38:52;;;;;;;;;4.25;4.25;;;;;;;;5081137;27;51146;-63
2022/03/12 02:41:19;;;;;;;;;3.00;3.00;;;;;;;;5074440;27;51136;-63
2022/03/12 02:43:45;;;;;;;;;4.00;4.00;;;;;;;;5062642;28;51167;-63
2022/03/12 02:46:12;;;;;;;;;4.25;4.00;;;;;;;;5073543;27;51084;-63
2022/03/12 02:48:38;;;;;;;;;4.00;3.25;;;;;;;;5067768;27;51617;-64
2022/03/12 02:51:05;;;;;;;;;4.00;4.00;;;;;;;;5071780;28;51150;-63
2022/03/12 02:53:31;;;;;;;;;3.00;2.50;;;;;;;;5073100;28;51059;-63
2022/03/12 02:55:56;;;;;;;;;4.00;4.00;;;;;;;;5073675;27;51284;-63
2022/03/12 02:58:21;;;;;;;;;5.25;4.25;;;;;;;;5073241;27;51253;-63
2022/03/12 03:00:47;;;;;;;;;3.75;3.75;;;;;;;;5071392;27;51250;-63
2022/03/12 03:03:12;;;;;;;;;7.00;4.00;;;;;;;;5066401;28;52582;-63
2022/03/12 03:05:46;;;;;;;;;4.50;4.00;;;;;;;;5072110;27;51704;-63
2022/03/12 03:08:14;;;;;;;;;5.75;1.75;;;;;;;;5071458;28;51081;-63
2022/03/12 03:10:40;;;;;;;;;5.25;5.25;;;;;;;;5073864;27;51113;-63
2022/03/12 03:13:19;;;;;;;;;6.00;3.00;;;;;;;;5071564;28;51977;-63
2022/03/12 03:15:49;;;;;;;;;3.75;3.75;;;;;;;;5071807;27;51016;-63
2022/03/12 03:18:16;;;;;;;;;5.25;4.00;;;;;;;;5072690;28;51030;-63
2022/03/12 03:20:41;;;;;;;;;4.00;4.00;;;;;;;;5073449;28;51316;-63
2022/03/12 03:23:08;;;;;;;;;5.25;4.50;;;;;;;;5070597;28;51291;-63
2022/03/12 03:25:33;;;;;;;;;4.25;4.25;;;;;;;;5068318;27;50973;-63
2022/03/12 03:27:58;;;;;;;;;5.25;4.50;;;;;;;;5070312;28;51291;-63
2022/03/12 03:30:23;;;;;;;;;4.50;4.00;;;;;;;;5073686;28;51250;-63
2022/03/12 03:32:49;;;;;;;;;3.00;3.00;;;;;;;;5070225;28;51149;-63
2022/03/12 03:35:14;;;;;;;;;4.00;4.00;;;;;;;;5067653;27;51092;-63
2022/03/12 03:37:39;;;;;;;;;4.50;3.75;;;;;;;;5073665;27;51257;-64
2022/03/12 03:40:05;;;;;;;;;3.75;3.75;;;;;;;;5060412;27;51137;-63
2022/03/12 03:42:30;;;;;;;;;5.25;3.75;;;;;;;;5071219;27;53072;-63
2022/03/12 03:45:02;;;;;;;;;3.00;3.00;;;;;;;;5072942;28;51140;-63
2022/03/12 03:47:27;;;;;;;;;4.00;4.00;;;;;;;;5073373;28;50993;-63
2022/03/12 03:49:52;;;;;;;;;6.25;4.25;;;;;;;;5072773;28;51135;-63
2022/03/12 03:52:18;;;;;;;;;2.50;2.00;;;;;;;;5070752;27;53043;-63
2022/03/12 03:54:43;;;;;;;;;1.75;1.00;;;;;;;;5072061;27;51119;-63
2022/03/12 03:57:14;;;;;;;;;4.00;3.50;;;;;;;;5063317;27;51769;-63
2022/03/12 03:59:40;;;;;;;;;3.75;3.75;;;;;;;;5069324;28;51410;-63
2022/03/12 04:02:05;;;;;;;;;4.00;4.00;;;;;;;;5071174;27;51216;-63
2022/03/12 04:04:33;;;;;;;;;5.50;4.00;;;;;;;;5066069;27;51062;-63
2022/03/12 04:06:59;;;;;;;;;3.75;3.75;;;;;;;;5062344;28;50824;-63
2022/03/12 04:09:24;;;;;;;;;4.00;3.00;;;;;;;;5069553;28;51422;-63
2022/03/12 04:11:49;;;;;;;;;3.50;3.50;;;;;;;;5071849;28;53330;-63
2022/03/12 04:14:15;;;;;;;;;3.00;3.00;;;;;;;;5072745;27;50963;-63
2022/03/12 04:16:43;;;;;;;;;4.25;4.25;;;;;;;;5073787;28;51109;-63
2022/03/12 04:19:08;;;;;;;;;2.50;2.50;;;;;;;;5072475;28;50889;-63
2022/03/12 04:21:34;;;;;;;;;3.00;2.50;;;;;;;;5073020;28;51548;-63
2022/03/12 04:23:59;;;;;;;;;2.00;2.00;;;;;;;;5071825;27;51183;-63
2022/03/12 04:26:24;;;;;;;;;3.50;3.50;;;;;;;;5070742;28;51716;-63
2022/03/12 04:28:51;;;;;;;;;6.00;3.50;;;;;;;;5058643;28;51067;-63
2022/03/12 04:31:17;;;;;;;;;4.00;3.00;;;;;;;;5071156;28;53685;-63
2022/03/12 04:33:43;;;;;;;;;3.50;3.50;;;;;;;;5070624;28;50999;-62
2022/03/12 04:36:13;;;;;;;;;2.25;2.25;;;;;;;;5074777;27;50923;-63
2022/03/12 04:38:38;;;;;;;;;1.50;1.25;;;;;;;;5077905;27;51206;-63
2022/03/12 04:41:03;;;;;;;;;5.50;4.00;;;;;;;;5070348;28;52739;-62
2022/03/12 04:43:30;;;;;;;;;6.00;3.00;;;;;;;;5071745;27;51204;-62
2022/03/12 04:45:58;;;;;;;;;2.50;2.50;;;;;;;;5069662;28;51000;-62
2022/03/12 04:48:23;;;;;;;;;3.00;3.00;;;;;;;;5071823;28;51058;-64
2022/03/12 04:50:52;;;;;;;;;4.00;3.00;;;;;;;;5072070;27;51123;-63
2022/03/12 04:53:18;;;;;;;;;0.50;0.50;;;;;;;;5071874;28;51035;-63
2022/03/12 04:55:44;;;;;;;;;3.00;3.00;;;;;;;;5071909;28;51175;-63
2022/03/12 04:58:10;;;;;;;;;1.25;1.25;;;;;;;;5071906;28;51200;-63
2022/03/12 05:00:38;;;;;;;;;1.50;1.25;;;;;;;;5070212;28;51930;-63
2022/03/12 05:03:08;;;;;;;;;3.00;2.75;;;;;;;;5061256;27;51333;-63
2022/03/12 05:05:33;;;;;;;;;6.00;4.25;;;;;;;;5072793;27;50952;-63
2022/03/12 05:07:59;;;;;;;;;2.00;2.00;;;;;;;;5075246;28;51306;-63
2022/03/12 05:10:27;;;;;;;;;3.50;3.50;;;;;;;;5075462;28;52212;-63
2022/03/12 05:12:59;;;;;;;;;2.00;2.00;;;;;;;;5074333;28;51011;-63
2022/03/12 05:15:25;;;;;;;;;3.25;2.00;;;;;;;;5061604;27;51902;-63
2022/03/12 05:17:51;;;;;;;;;3.00;3.00;;;;;;;;5061882;27;51361;-64
2022/03/12 05:20:21;;;;;;;;;1.75;1.00;;;;;;;;5074778;28;52272;-63
2022/03/12 05:22:46;;;;;;;;;3.25;3.25;;;;;;;;5074581;28;50942;-63
2022/03/12 05:25:12;;;;;;;;;3.00;3.00;;;;;;;;5074191;28;51009;-63
2022/03/12 05:27:37;;;;;;;;;5.00;4.00;;;;;;;;5071992;28;51387;-63
2022/03/12 05:30:03;;;;;;;;;3.00;2.50;;;;;;;;5075505;28;52264;-63
2022/03/12 05:32:28;;;;;;;;;3.00;3.00;;;;;;;;5071666;28;51119;-63
2022/03/12 05:34:54;;;;;;;;;4.25;3.75;;;;;;;;5075339;27;51229;-63
2022/03/12 05:37:19;;;;;;;;;2.00;2.00;;;;;;;;5072522;27;51136;-63
2022/03/12 05:39:44;;;;;;;;;4.00;3.00;;;;;;;;5075215;28;51740;-63
2022/03/12 05:42:10;;;;;;;;;3.00;3.00;;;;;;;;5075374;28;50960;-64
2022/03/12 05:44:36;;;;;;;;;3.75;2.50;;;;;;;;5076134;28;50903;-63
2022/03/12 05:47:02;;;;;;;;;2.50;2.00;;;;;;;;5072930;28;51023;-63
2022/03/12 05:49:27;;;;;;;;;3.00;2.00;;;;;;;;5106819;27;52646;-63
2022/03/12 05:51:52;;;;;;;;;2.50;2.50;;;;;;;;5076837;27;51146;-63
2022/03/12 05:54:18;;;;;;;;;3.25;3.00;;;;;;;;5075534;27;50989;-63
2022/03/12 05:56:43;;;;;;;;;2.75;2.00;;;;;;;;5075232;28;50886;-63
2022/03/12 05:59:09;;;;;;;;;3.00;3.00;;;;;;;;5072870;27;53692;-63
2022/03/12 06:01:34;;;;;;;;;3.00;3.00;;;;;;;;5074253;28;50966;-63
2022/03/12 06:04:02;;;;;;;;;3.00;3.00;;;;;;;;5073202;27;51385;-63
2022/03/12 06:06:29;;;;;;;;;2.25;2.00;;;;;;;;5053718;27;51192;-63
2022/03/12 06:08:58;;;;;;;;;3.75;2.50;;;;;;;;5069090;28;51122;-65
2022/03/12 06:11:27;;;;;;;;;3.75;3.00;;;;;;;;5074497;28;50876;-63
2022/03/12 06:13:59;;;;;;;;;5.50;4.25;;;;;;;;5073980;28;51089;-63
2022/03/12 06:16:25;;;;;;;;;4.00;3.75;;;;;;;;5071612;28;50922;-63
2022/03/12 06:18:52;;;;;;;;;5.50;4.25;;;;;;;;5072916;28;53280;-63
2022/03/12 06:21:18;;;;;;;;;3.75;3.75;;;;;;;;5072086;28;51004;-63
2022/03/12 06:23:43;;;;;;;;;5.25;5.00;;;;;;;;5073419;27;51135;-63
2022/03/12 06:26:12;;;;;;;;;6.25;6.25;;;;;;;;5073256;28;50984;-64
2022/03/12 06:28:37;;;;;;;;;8.00;7.00;;;;;;;;5073001;27;52396;-63
2022/03/12 06:31:03;;;;;;;;;4.00;4.00;;;;;;;;5071574;27;51110;-64
2022/03/12 06:33:30;;;;;;;;;5.00;4.50;;;;;;;;5072159;28;50953;-63
2022/03/12 06:35:57;;;;;;;;;5.50;5.50;;;;;;;;5072265;27;51135;-65
2022/03/12 06:38:24;;;;;;;;;2.25;2.25;;;;;;;;5074667;27;52003;-63
2022/03/12 06:40:49;;;;;;;;;4.50;3.25;;;;;;;;5065054;27;51039;-63
2022/03/12 06:43:19;;;;;;;;;3.50;3.00;;;;;;;;5072372;28;51685;-63
2022/03/12 06:45:45;;;;;;;;;3.50;3.50;;;;;;;;5072778;27;51207;-63
2022/03/12 06:48:10;;;;;;;;;3.75;3.00;;;;;;;;5063320;28;52799;-63
2022/03/12 06:50:37;;;;;;;;;6.00;4.00;;;;;;;;5067551;28;51116;-63
2022/03/12 06:53:02;;;;;;;;;4.00;3.00;;;;;;;;5070606;28;51274;-63
2022/03/12 06:55:28;;;;;;;;;2.50;2.50;;;;;;;;5072470;27;51260;-63
2022/03/12 06:57:54;;;;;;;;;6.75;5.25;;;;;;;;5071772;27;51917;-63
2022/03/12 07:00:24;;;;;;;;;3.50;3.50;;;;;;;;5073779;28;51293;-63
2022/03/12 07:02:49;;;;;;;;;3.00;3.00;;;;;;;;5069696;28;50976;-63
2022/03/12 07:05:14;;;;;;;;;6.00;6.00;;;;;;;;5073110;28;50893;-63
2022/03/12 07:07:40;;;;;;;;;4.50;3.00;;;;;;;;5072225;27;50935;-63
2022/03/12 07:10:06;;;;;;;;;5.50;4.25;;;;;;;;5071486;28;51126;-63
2022/03/12 07:12:32;;;;;;;;;4.50;4.50;;;;;;;;5070717;28;50971;-64
2022/03/12 07:14:57;;;;;;;;;3.00;3.00;;;;;;;;5071912;28;51226;-63
2022/03/12 07:17:22;;;;;;;;;6.75;3.75;;;;;;;;5073232;28;52000;-64
2022/03/12 07:19:47;;;;;;;;;5.00;4.00;;;;;;;;5074913;28;51152;-64
2022/03/12 07:22:13;;;;;;;;;3.25;3.25;;;;;;;;5072563;28;51139;-64
2022/03/12 07:24:38;;;;;;;;;6.25;4.75;;;;;;;;5060532;27;51341;-64
2022/03/12 07:27:04;;;;;;;;;3.00;3.00;;;;;;;;5063457;27;53644;-64
2022/03/12 07:29:31;;;;;;;;;4.50;3.50;;;;;;;;5069505;27;51073;-64
2022/03/12 07:31:56;;;;;;;;;3.00;3.00;;;;;;;;5070105;27;51171;-64
2022/03/12 07:34:22;;;;;;;;;3.25;3.25;;;;;;;;5073415;28;51289;-63
2022/03/12 07:36:48;;;;;;;;;4.00;4.00;;;;;;;;5076702;27;51909;-63
2022/03/12 07:39:13;;;;;;;;;5.25;4.75;;;;;;;;5072178;28;51107;-63
2022/03/12 07:41:38;;;;;;;;;42.75;39.25;;;;;;;;5069890;27;51254;-63
2022/03/12 07:44:04;;;;;;;;;4.50;4.00;;;;;;;;5070358;28;51121;-63
2022/03/12 07:46:30;;;;;;;;;5.75;4.00;;;;;;;;5071398;27;51978;-64
2022/03/12 07:48:55;;;;;;;;;8.50;7.00;;;;;;;;5072163;28;51088;-65
2022/03/12 07:51:21;;;;;;;;;6.75;5.25;;;;;;;;5071958;28;51122;-63
2022/03/12 07:53:46;;;;;;;;;6.00;5.25;;;;;;;;5073088;28;51393;-65
2022/03/12 07:56:12;;;;;;;;;4.00;3.50;;;;;;;;5072884;27;51995;-63
2022/03/12 07:58:37;;;;;;;;;4.00;4.00;;;;;;;;5068036;27;51040;-62
2022/03/12 08:01:03;;;;;;;;;4.00;4.00;;;;;;;;5070717;27;51015;-63
2022/03/12 08:03:29;;;;;;;;;4.50;4.25;;;;;;;;5073596;28;51336;-62
2022/03/12 08:05:54;;;;;;;;;7.00;7.00;;;;;;;;5070563;28;52457;-63
2022/03/12 08:08:20;;;;;;;;;5.50;5.50;;;;;;;;5068731;27;51303;-64
2022/03/12 08:13:29;;;;;;;;;5.00;5.00;;;;;;;;5069182;28;51550;-63
2022/03/12 08:15:55;;;;;;;;;5.00;4.50;;;;;;;;5069811;28;51071;-64
2022/03/12 08:18:22;;;;;;;;;4.00;4.00;;;;;;;;5071361;28;51122;-64
2022/03/12 08:20:47;;;;;;;;;4.00;4.00;;;;;;;;5077080;27;51142;-63
2022/03/12 08:23:13;;;;;;;;;6.50;6.50;;;;;;;;5072809;27;51073;-63
2022/03/12 08:25:38;;;;;;;;;4.50;4.50;;;;;;;;5068003;27;51889;-64
2022/03/12 08:28:04;;;;;;;;;4.25;4.25;;;;;;;;5071990;27;51022;-63
2022/03/12 08:30:29;;;;;;;;;4.00;4.00;;;;;;;;5063222;27;51479;-62
2022/03/12 08:32:55;;;;;;;;;5.00;4.00;;;;;;;;5069045;27;51102;-63
2022/03/12 08:35:20;;;;;;;;;5.00;4.50;;;;;;;;5070753;27;51091;-63
2022/03/12 08:37:45;;;;;;;;;6.00;5.00;;;;;;;;5073525;27;50964;-62
2022/03/12 08:40:13;;;;;;;;;5.00;4.75;;;;;;;;5070082;27;51139;-61
2022/03/12 08:42:38;;;;;;;;;4.75;4.75;;;;;;;;5060262;27;51323;-64
2022/03/12 08:45:03;;;;;;;;;4.00;4.00;;;;;;;;5074243;27;51031;-62
2022/03/12 08:47:29;;;;;;;;;5.00;4.00;;;;;;;;5068565;27;51108;-62
2022/03/12 08:49:54;;;;;;;;;3.50;3.50;;;;;;;;5072655;27;51302;-64
2022/03/12 08:52:20;;;;;;;;;4.25;4.25;;;;;;;;5070119;27;51324;-64
2022/03/12 08:54:45;;;;;;;;;3.75;3.75;;;;;;;;5074830;28;51751;-64
2022/03/12 08:57:10;;;;;;;;;5.50;5.00;;;;;;;;5074018;27;51091;-63
2022/03/12 08:59:35;;;;;;;;;8.00;7.25;;;;;;;;5075249;27;50942;-64
2022/03/12 09:02:01;;;;;;;;;6.00;4.50;;;;;;;;5074084;28;51199;-64
2022/03/12 09:04:26;;;;;;;;;7.25;4.75;;;;;;;;5078115;27;51843;-68
2022/03/12 09:06:52;;;;;;;;;4.75;4.00;;;;;;;;5064550;28;51170;-63
2022/03/12 09:09:17;;;;;;;;;4.00;4.00;;;;;;;;5053615;28;51039;-63
2022/03/12 09:11:43;;;;;;;;;5.00;5.00;;;;;;;;5072414;27;51215;-62
2022/03/12 09:14:08;;;;;;;;;8.75;5.00;;;;;;;;5074001;27;51663;-63
2022/03/12 09:16:36;;;;;;;;;5.00;5.00;;;;;;;;5074898;27;50928;-63
2022/03/12 09:19:02;;;;;;;;;6.25;5.50;;;;;;;;5074844;27;51098;-63
2022/03/12 09:21:27;;;;;;;;;6.50;6.50;;;;;;;;5074144;27;51052;-63
2022/03/12 09:23:52;;;;;;;;;9.00;8.50;;;;;;;;5072580;27;51495;-64
2022/03/12 09:26:21;;;;;;;;;13.75;13.50;;;;;;;;5065635;27;51255;-63
2022/03/12 09:28:47;;;;;;;;;6.50;5.00;;;;;;;;5074567;28;51225;-64
2022/03/12 09:31:12;;;;;;;;;6.25;6.00;;;;;;;;5060153;28;51191;-63
2022/03/12 09:33:38;;;;;;;;;9.00;8.25;;;;;;;;5073918;27;51168;-63
2022/03/12 09:36:03;;;;;;;;;10.00;8.00;;;;;;;;5050692;27;51313;-63
2022/03/12 09:38:31;;;;;;;;;8.75;7.00;;;;;;;;5063817;27;51198;-63
2022/03/12 09:40:57;;;;;;;;;8.00;8.00;;;;;;;;5073628;27;51257;-63
2022/03/12 09:43:22;;;;;;;;;7.25;6.75;;;;;;;;5072963;27;51883;-62
2022/03/12 09:45:48;;;;;;;;;6.50;5.00;;;;;;;;5073031;28;51203;-64
2022/03/12 09:48:13;;;;;;;;;7.00;7.00;;;;;;;;5070032;27;51692;-64
2022/03/12 09:50:38;;;;;;;;;8.50;7.50;;;;;;;;5073540;27;51134;-64
2022/03/12 09:53:04;;;;;;;;;10.50;10.00;;;;;;;;5057517;27;52641;-64
2022/03/12 09:55:29;;;;;;;;;5.75;5.75;;;;;;;;5070833;27;51131;-63
2022/03/12 09:57:55;;;;;;;;;9.00;8.00;;;;;;;;5071668;27;50942;-63
2022/03/12 10:00:21;;;;;;;;;9.25;9.00;;;;;;;;5073503;27;51367;-63
2022/03/12 10:02:46;;;;;;;;;8.50;7.50;;;;;;;;5073207;27;51089;-64
2022/03/12 10:05:13;;;;;;;;;10.25;8.50;;;;;;;;5074284;27;51139;-64
2022/03/12 10:07:39;;;;;;;;;10.50;9.75;;;;;;;;5074124;27;51169;-61
2022/03/12 10:10:04;;;;;;;;;8.75;8.50;;;;;;;;5072773;28;51219;-63
2022/03/12 10:12:30;;;;;;;;;5.25;5.00;;;;;;;;5072851;27;53057;-64
2022/03/12 10:14:55;;;;;;;;;89.75;76.25;;;;;;;;5073549;28;50938;-65
2022/03/12 10:17:20;;;;;;;;;62.25;49.50;;;;;;;;5073943;28;51086;-65
2022/03/12 10:19:46;;;;;;;;;5.50;5.25;;;;;;;;5071464;27;51157;-66
2022/03/12 10:22:11;;;;;;;;;5.50;5.25;;;;;;;;5073002;27;52370;-65
2022/03/12 10:24:37;;;;;;;;;5.00;5.00;;;;;;;;5073619;28;51098;-64
2022/03/12 10:27:03;;;;;;;;;6.50;5.75;;;;;;;;5071844;28;50976;-64
2022/03/12 10:29:28;;;;;;;;;6.00;6.00;;;;;;;;5073219;28;51216;-64
2022/03/12 10:31:53;;;;;;;;;5.25;5.00;;;;;;;;5073704;27;52322;-64
2022/03/12 10:34:23;;;;;;;;;7.00;6.50;;;;;;;;5071474;27;51038;-64
2022/03/12 10:36:53;;;;;;;;;10.00;10.00;;;;;;;;5073778;27;51523;-67
2022/03/12 10:39:35;;;;;;;;;8.50;8.00;;;;;;;;5074405;27;51471;-63
2022/03/12 10:42:01;;;;;;;;;5.50;5.50;;;;;;;;5072020;28;51135;-63
2022/03/12 10:44:34;;;;;;;;;8.25;7.00;;;;;;;;5054770;28;50993;-63
2022/03/12 10:46:59;;;;;;;;;9.25;9.00;;;;;;;;5072104;28;50995;-62
2022/03/12 10:49:24;;;;;;;;;8.25;6.75;;;;;;;;5073432;28;51745;-63
2022/03/12 10:51:54;;;;;;;;;8.25;6.75;;;;;;;;5070343;28;51061;-64
2022/03/12 10:54:20;;;;;;;;;7.75;7.25;;;;;;;;5071438;27;50944;-64
2022/03/12 10:56:50;;;;;;;;;7.50;6.75;;;;;;;;5071553;28;51113;-63
2022/03/12 10:59:25;;;;;;;;;7.00;7.00;;;;;;;;5071028;27;51129;-65
2022/03/12 11:01:52;;;;;;;;;9.50;9.00;;;;;;;;5071455;28;52748;-65
2022/03/12 11:04:19;;;;;;;;;11.00;10.00;;;;;;;;5070676;28;51111;-64
2022/03/12 11:06:45;;;;;;;;;8.50;8.00;;;;;;;;5066261;28;51324;-63
2022/03/12 11:09:30;;;;;;;;;12.00;11.00;;;;;;;;5066535;28;51182;-65
2022/03/12 11:11:57;;;;;;;;;9.75;7.75;;;;;;;;5072188;27;51847;-63
2022/03/12 11:14:23;;;;;;;;;10.50;10.00;;;;;;;;5069050;28;51172;-63
2022/03/12 11:16:55;;;;;;;;;10.00;10.00;;;;;;;;5072217;27;51088;-63
2022/03/12 11:19:39;;;;;;;;;11.75;11.75;;;;;;;;5072485;28;51267;-64
2022/03/12 11:22:09;;;;;;;;;9.00;8.50;;;;;;;;5072027;28;51075;-63
2022/03/12 11:24:43;;;;;;;;;10.75;10.25;;;;;;;;5067927;27;51228;-63
2022/03/12 11:27:12;;;;;;;;;10.00;9.25;;;;;;;;5071959;27;51144;-64
2022/03/12 11:29:38;;;;;;;;;8.75;8.25;;;;;;;;5071868;28;50957;-64
2022/03/12 11:32:05;;;;;;;;;12.75;12.00;;;;;;;;5068464;28;51466;-63
2022/03/12 11:34:40;;;;;;;;;8.25;7.00;;;;;;;;5072690;27;51061;-64
2022/03/12 11:37:20;;;;;;;;;8.25;7.25;;;;;;;;5075976;27;51150;-64
2022/03/12 11:39:52;;;;;;;;;11.75;11.00;;;;;;;;5069619;27;51079;-62
2022/03/12 11:42:19;;;;;;;;;7.75;7.25;;;;;;;;5063596;27;52009;-64
2022/03/12 11:44:47;;;;;;;;;7.00;6.00;;;;;;;;5070684;27;50984;-62
2022/03/12 11:47:14;;;;;;;;;8.00;7.00;;;;;;;;5067045;28;51085;-61
2022/03/12 11:49:41;;;;;;;;;6.00;6.00;;;;;;;;5068641;28;51135;-67
2022/03/12 11:52:10;;;;;;;;;6.75;6.00;;;;;;;;5053199;28;50962;-62
2022/03/12 11:54:43;;;;;;;;;6.00;6.00;;;;;;;;5064906;27;51010;-64
2022/03/12 11:57:09;;;;;;;;;11.00;9.50;;;;;;;;5066263;27;51243;-59
2022/03/12 11:59:35;;;;;;;;;8.50;8.25;;;;;;;;5070711;27;51113;-63
2022/03/12 12:02:04;;;;;;;;;7.00;7.00;;;;;;;;5070669;27;51785;-64
2022/03/12 12:04:34;;;;;;;;;10.00;10.00;;;;;;;;5070172;27;51364;-62
2022/03/12 12:07:00;;;;;;;;;12.00;12.00;;;;;;;;5070913;27;51196;-66
2022/03/12 12:09:26;;;;;;;;;13.25;11.75;;;;;;;;5071211;28;51160;-68
2022/03/12 12:11:53;;;;;;;;;11.00;10.75;;;;;;;;5071520;27;51008;-66
2022/03/12 12:14:19;;;;;;;;;10.75;9.75;;;;;;;;5066847;27;51352;-66
2022/03/12 12:16:45;;;;;;;;;8.00;7.25;;;;;;;;5064896;27;51134;-66
2022/03/12 12:19:10;;;;;;;;;7.50;7.25;;;;;;;;5067612;27;51303;-68
2022/03/12 12:21:35;;;;;;;;;7.75;7.75;;;;;;;;5067953;27;52190;-68
2022/03/12 12:24:21;;;;;;;;;9.25;9.25;;;;;;;;5070978;28;51071;-66
2022/03/12 12:26:56;;;;;;;;;10.00;9.25;;;;;;;;5068647;27;51524;-66
2022/03/12 12:29:40;;;;;;;;;9.25;7.00;;;;;;;;5062486;27;51361;-67
2022/03/12 12:32:06;;;;;;;;;9.75;8.50;;;;;;;;5068603;27;51178;-67
2022/03/12 12:34:34;;;;;;;;;13.25;12.00;;;;;;;;5069605;28;51170;-68
2022/03/12 12:37:00;;;;;;;;;13.25;11.00;;;;;;;;5076883;27;50819;-67
2022/03/12 12:39:25;;;;;;;;;12.25;9.75;;;;;;;;5069844;27;51005;-67
2022/03/12 12:41:53;;;;;;;;;11.00;9.67;;;;;;;;5069062;27;51518;-67
2022/03/12 12:44:48;;;;;;;;;6.75;6.75;;;;;;;;5062894;27;51480;-65
2022/03/12 12:47:20;;;;;;;;;7.00;7.00;;;;;;;;5054537;27;51214;-67
2022/03/12 12:49:53;;;;;;;;;6.00;6.00;;;;;;;;5095603;27;51136;-66
2022/03/12 12:52:18;;;;;;;;;10.50;9.25;;;;;;;;5064334;28;51703;-66
2022/03/12 12:54:43;;;;;;;;;9.00;9.00;;;;;;;;5070066;28;51019;-67
2022/03/12 12:57:11;;;;;;;;;8.50;7.25;;;;;;;;5069360;28;51224;-66
2022/03/12 12:59:38;;;;;;;;;7.75;7.50;;;;;;;;5069907;28;51310;-67
2022/03/12 13:02:04;;;;;;;;;10.50;6.25;;;;;;;;5069406;27;52135;-67
2022/03/12 13:04:48;;;;;;;;;6.00;5.75;;;;;;;;5070599;28;51080;-66
2022/03/12 13:07:24;;;;;;;;;10.00;9.25;;;;;;;;5071537;28;51071;-65
2022/03/12 13:09:49;;;;;;;;;11.25;9.25;;;;;;;;5070060;28;51297;-67
2022/03/12 13:12:17;;;;;;;;;4.75;4.00;;;;;;;;5068288;28;52049;-66
2022/03/12 13:14:43;;;;;;;;;10.50;9.75;;;;;;;;5071476;28;51005;-66
2022/03/12 13:17:11;;;;;;;;;10.00;7.50;;;;;;;;5070971;27;51107;-65
2022/03/12 13:19:43;;;;;;;;;13.75;11.00;;;;;;;;5069803;27;51138;-64
2022/03/12 13:22:14;;;;;;;;;5.75;5.75;;;;;;;;5070555;28;50926;-66
2022/03/12 13:24:50;;;;;;;;;8.25;7.00;;;;;;;;5070393;28;51947;-67
2022/03/12 13:27:22;;;;;;;;;10.00;8.75;;;;;;;;5061759;27;51153;-66
2022/03/12 13:30:04;;;;;;;;;7.50;7.50;;;;;;;;5072802;28;51888;-66
2022/03/12 13:32:30;;;;;;;;;10.00;8.25;;;;;;;;5073809;27;52086;-67
2022/03/12 13:34:55;;;;;;;;;13.75;12.50;;;;;;;;5072431;28;51091;-68
2022/03/12 13:37:20;;;;;;;;;7.00;7.00;;;;;;;;5078645;27;52190;-66
2022/03/12 13:39:45;;;;;;;;;8.25;8.25;;;;;;;;5073420;28;51181;-65
2022/03/12 13:42:13;;;;;;;;;10.75;10.75;;;;;;;;5072625;28;51952;-67
2022/03/12 13:44:43;;;;;;;;;7.00;7.00;;;;;;;;5072349;28;51268;-67
2022/03/12 13:47:08;;;;;;;;;6.00;6.00;;;;;;;;5072144;28;51139;-67
2022/03/12 13:49:39;;;;;;;;;6.67;5.67;;;;;;;;5073390;28;51114;-66
2022/03/12 13:52:05;;;;;;;;;10.75;10.25;;;;;;;;5069949;27;52457;-66
2022/03/12 13:54:30;;;;;;;;;7.00;7.00;;;;;;;;5072505;28;50962;-66
2022/03/12 13:56:58;;;;;;;;;8.00;7.00;;;;;;;;5069363;28;51762;-65
2022/03/12 13:59:27;;;;;;;;;6.33;6.00;;;;;;;;5073278;28;50804;-64
2022/03/12 14:01:54;;;;;;;;;5.00;4.67;;;;;;;;5069079;27;53006;-65
2022/03/12 14:04:22;;;;;;;;;5.00;5.00;;;;;;;;5068183;28;51134;-66
2022/03/12 14:06:48;;;;;;;;;6.00;6.00;;;;;;;;5067627;28;51000;-64
2022/03/12 14:09:15;;;;;;;;;6.50;6.00;;;;;;;;5072733;28;51418;-66
2022/03/12 14:11:47;;;;;;;;;11.25;7.75;;;;;;;;5072169;28;52827;-65
2022/03/12 14:14:13;;;;;;;;;5.33;5.33;;;;;;;;5073885;28;51103;-67
2022/03/12 14:16:46;;;;;;;;;6.33;5.67;;;;;;;;5071921;28;51067;-65
2022/03/12 14:19:16;;;;;;;;;6.50;6.50;;;;;;;;5072055;28;51398;-66
2022/03/12 14:21:47;;;;;;;;;5.50;5.00;;;;;;;;5071836;28;52793;-66
2022/03/12 14:24:12;;;;;;;;;8.75;7.00;;;;;;;;5073541;28;51023;-66
2022/03/12 14:26:43;;;;;;;;;5.25;5.25;;;;;;;;5071970;28;51383;-66
2022/03/12 14:29:09;;;;;;;;;7.00;7.00;;;;;;;;5073664;28;51499;-66
2022/03/12 14:31:37;;;;;;;;;7.00;7.00;;;;;;;;5073136;28;51067;-65
2022/03/12 14:34:04;;;;;;;;;5.00;5.00;;;;;;;;5068415;28;51167;-67
2022/03/12 14:36:32;;;;;;;;;8.50;8.50;;;;;;;;5071735;27;51135;-66
2022/03/12 14:39:00;;;;;;;;;10.25;9.75;;;;;;;;5070452;28;51328;-66
2022/03/12 14:41:26;;;;;;;;;12.25;10.50;;;;;;;;5072334;28;51974;-66